sensor_id;sensor_type;location;lat;lon;timestamp;temperature;humidity
56046;DHT22;41913;51.030;3.706;2024-03-08T00:00:04;17.40;79.50
56046;DHT22;41913;51.030;3.706;2024-03-08T00:02:38;17.40;79.40
56046;DHT22;41913;51.030;3.706;2024-03-08T00:05:05;17.40;80.00
56046;DHT22;41913;51.030;3.706;2024-03-08T00:07:31;17.40;79.50
56046;DHT22;41913;51.030;3.706;2024-03-08T00:09:58;17.40;79.30
56046;DHT22;41913;51.030;3.706;2024-03-08T00:12:25;17.40;79.60
56046;DHT22;41913;51.030;3.706;2024-03-08T00:14:53;17.40;79.50
56046;DHT22;41913;51.030;3.706;2024-03-08T00:17:22;17.40;79.50
56046;DHT22;41913;51.030;3.706;2024-03-08T00:19:49;17.40;79.50
56046;DHT22;41913;51.030;3.706;2024-03-08T00:22:16;17.40;79.60
56046;DHT22;41913;51.030;3.706;2024-03-08T00:24:42;17.40;79.60
56046;DHT22;41913;51.030;3.706;2024-03-08T00:27:08;17.40;79.80
56046;DHT22;41913;51.030;3.706;2024-03-08T00:29:35;17.40;79.70
56046;DHT22;41913;51.030;3.706;2024-03-08T00:32:00;17.40;79.90
56046;DHT22;41913;51.030;3.706;2024-03-08T00:34:26;17.30;79.60
56046;DHT22;41913;51.030;3.706;2024-03-08T00:36:52;17.40;79.80
56046;DHT22;41913;51.030;3.706;2024-03-08T00:39:18;17.30;79.70
56046;DHT22;41913;51.030;3.706;2024-03-08T00:41:46;17.30;79.70
56046;DHT22;41913;51.030;3.706;2024-03-08T00:44:13;17.30;79.60
56046;DHT22;41913;51.030;3.706;2024-03-08T00:46:38;17.30;79.70
56046;DHT22;41913;51.030;3.706;2024-03-08T00:49:04;17.30;79.60
56046;DHT22;41913;51.030;3.706;2024-03-08T00:51:30;17.30;79.70
56046;DHT22;41913;51.030;3.706;2024-03-08T00:53:57;17.30;80.10
56046;DHT22;41913;51.030;3.706;2024-03-08T00:56:22;17.30;80.20
56046;DHT22;41913;51.030;3.706;2024-03-08T00:58:50;17.30;79.70
56046;DHT22;41913;51.030;3.706;2024-03-08T01:01:18;17.30;79.80
56046;DHT22;41913;51.030;3.706;2024-03-08T01:03:44;17.30;79.70
56046;DHT22;41913;51.030;3.706;2024-03-08T01:06:10;17.30;79.70
56046;DHT22;41913;51.030;3.706;2024-03-08T01:08:37;17.30;79.90
56046;DHT22;41913;51.030;3.706;2024-03-08T01:11:08;17.30;79.80
56046;DHT22;41913;51.030;3.706;2024-03-08T01:13:34;17.30;79.90
56046;DHT22;41913;51.030;3.706;2024-03-08T01:16:01;17.30;80.00
56046;DHT22;41913;51.030;3.706;2024-03-08T01:18:27;17.30;80.10
56046;DHT22;41913;51.030;3.706;2024-03-08T01:20:53;17.30;79.80
56046;DHT22;41913;51.030;3.706;2024-03-08T01:23:18;17.20;79.90
56046;DHT22;41913;51.030;3.706;2024-03-08T01:25:44;17.30;79.70
56046;DHT22;41913;51.030;3.706;2024-03-08T01:28:10;17.20;79.70
56046;DHT22;41913;51.030;3.706;2024-03-08T01:30:36;17.20;79.70
56046;DHT22;41913;51.030;3.706;2024-03-08T01:33:03;17.20;80.00
56046;DHT22;41913;51.030;3.706;2024-03-08T01:35:29;17.20;79.90
56046;DHT22;41913;51.030;3.706;2024-03-08T01:37:54;17.20;79.80
56046;DHT22;41913;51.030;3.706;2024-03-08T01:40:20;17.30;79.90
56046;DHT22;41913;51.030;3.706;2024-03-08T01:42:46;17.20;79.80
56046;DHT22;41913;51.030;3.706;2024-03-08T01:45:13;17.20;79.90
56046;DHT22;41913;51.030;3.706;2024-03-08T01:47:39;17.20;79.80
56046;DHT22;41913;51.030;3.706;2024-03-08T01:50:07;17.20;79.70
56046;DHT22;41913;51.030;3.706;2024-03-08T01:52:33;17.20;79.60
56046;DHT22;41913;51.030;3.706;2024-03-08T01:55:02;17.20;79.60
56046;DHT22;41913;51.030;3.706;2024-03-08T01:57:34;17.20;79.70
56046;DHT22;41913;51.030;3.706;2024-03-08T02:00:01;17.20;80.40
56046;DHT22;41913;51.030;3.706;2024-03-08T02:02:32;17.20;79.70
56046;DHT22;41913;51.030;3.706;2024-03-08T02:05:00;17.20;79.80
56046;DHT22;41913;51.030;3.706;2024-03-08T02:07:26;17.20;79.90
56046;DHT22;41913;51.030;3.706;2024-03-08T02:09:52;17.20;79.80
56046;DHT22;41913;51.030;3.706;2024-03-08T02:12:18;17.20;79.70
56046;DHT22;41913;51.030;3.706;2024-03-08T02:14:46;17.20;79.80
56046;DHT22;41913;51.030;3.706;2024-03-08T02:17:12;17.20;79.90
56046;DHT22;41913;51.030;3.706;2024-03-08T02:19:38;17.20;79.70
56046;DHT22;41913;51.030;3.706;2024-03-08T02:22:05;17.20;80.00
56046;DHT22;41913;51.030;3.706;2024-03-08T02:24:32;17.20;79.80
56046;DHT22;41913;51.030;3.706;2024-03-08T02:26:58;17.10;79.60
56046;DHT22;41913;51.030;3.706;2024-03-08T02:29:24;17.20;79.70
56046;DHT22;41913;51.030;3.706;2024-03-08T02:31:53;17.10;79.60
56046;DHT22;41913;51.030;3.706;2024-03-08T02:34:18;17.00;79.50
56046;DHT22;41913;51.030;3.706;2024-03-08T02:36:45;17.10;79.60
56046;DHT22;41913;51.030;3.706;2024-03-08T02:39:12;17.10;79.80
56046;DHT22;41913;51.030;3.706;2024-03-08T02:41:38;17.10;79.40
56046;DHT22;41913;51.030;3.706;2024-03-08T02:44:04;17.10;79.60
56046;DHT22;41913;51.030;3.706;2024-03-08T02:46:30;17.10;79.60
56046;DHT22;41913;51.030;3.706;2024-03-08T02:48:56;17.10;79.80
56046;DHT22;41913;51.030;3.706;2024-03-08T02:51:21;17.10;79.70
56046;DHT22;41913;51.030;3.706;2024-03-08T02:53:47;17.10;79.80
56046;DHT22;41913;51.030;3.706;2024-03-08T02:56:15;17.10;79.70
56046;DHT22;41913;51.030;3.706;2024-03-08T02:58:42;17.10;79.80
56046;DHT22;41913;51.030;3.706;2024-03-08T03:01:09;17.10;79.80
56046;DHT22;41913;51.030;3.706;2024-03-08T03:03:38;17.10;79.80
56046;DHT22;41913;51.030;3.706;2024-03-08T03:06:04;17.10;79.90
56046;DHT22;41913;51.030;3.706;2024-03-08T03:08:30;17.10;79.70
56046;DHT22;41913;51.030;3.706;2024-03-08T03:10:55;17.10;79.80
56046;DHT22;41913;51.030;3.706;2024-03-08T03:13:22;17.10;79.70
56046;DHT22;41913;51.030;3.706;2024-03-08T03:15:48;17.10;79.60
56046;DHT22;41913;51.030;3.706;2024-03-08T03:18:14;17.10;79.80
56046;DHT22;41913;51.030;3.706;2024-03-08T03:20:41;17.10;79.90
56046;DHT22;41913;51.030;3.706;2024-03-08T03:23:08;17.10;79.90
56046;DHT22;41913;51.030;3.706;2024-03-08T03:25:35;17.10;79.80
56046;DHT22;41913;51.030;3.706;2024-03-08T03:28:04;17.00;80.10
56046;DHT22;41913;51.030;3.706;2024-03-08T03:30:30;17.10;79.90
56046;DHT22;41913;51.030;3.706;2024-03-08T03:33:00;17.00;79.80
56046;DHT22;41913;51.030;3.706;2024-03-08T03:35:27;17.00;79.70
56046;DHT22;41913;51.030;3.706;2024-03-08T03:37:53;17.00;80.00
56046;DHT22;41913;51.030;3.706;2024-03-08T03:40:47;17.00;79.90
56046;DHT22;41913;51.030;3.706;2024-03-08T03:43:14;17.00;80.00
56046;DHT22;41913;51.030;3.706;2024-03-08T03:45:40;17.00;79.70
56046;DHT22;41913;51.030;3.706;2024-03-08T03:48:08;17.00;79.90
56046;DHT22;41913;51.030;3.706;2024-03-08T03:50:37;17.00;79.70
56046;DHT22;41913;51.030;3.706;2024-03-08T03:53:03;17.00;79.60
56046;DHT22;41913;51.030;3.706;2024-03-08T03:55:29;17.00;79.70
56046;DHT22;41913;51.030;3.706;2024-03-08T03:57:55;17.00;79.70
56046;DHT22;41913;51.030;3.706;2024-03-08T04:00:21;17.00;79.60
56046;DHT22;41913;51.030;3.706;2024-03-08T04:02:47;17.00;79.90
56046;DHT22;41913;51.030;3.706;2024-03-08T04:05:12;17.00;79.70
56046;DHT22;41913;51.030;3.706;2024-03-08T04:07:39;17.00;79.60
56046;DHT22;41913;51.030;3.706;2024-03-08T04:10:07;17.00;79.70
56046;DHT22;41913;51.030;3.706;2024-03-08T04:12:33;17.00;79.70
56046;DHT22;41913;51.030;3.706;2024-03-08T04:14:59;17.00;79.70
56046;DHT22;41913;51.030;3.706;2024-03-08T04:17:26;17.00;79.70
56046;DHT22;41913;51.030;3.706;2024-03-08T04:19:52;17.00;79.60
56046;DHT22;41913;51.030;3.706;2024-03-08T04:22:18;17.00;80.30
56046;DHT22;41913;51.030;3.706;2024-03-08T04:24:45;17.00;79.60
56046;DHT22;41913;51.030;3.706;2024-03-08T04:27:11;16.90;79.50
56046;DHT22;41913;51.030;3.706;2024-03-08T04:29:37;16.90;79.40
56046;DHT22;41913;51.030;3.706;2024-03-08T04:32:04;16.90;79.40
56046;DHT22;41913;51.030;3.706;2024-03-08T04:34:30;16.90;79.30
56046;DHT22;41913;51.030;3.706;2024-03-08T04:37:01;16.90;79.30
56046;DHT22;41913;51.030;3.706;2024-03-08T04:39:27;16.90;79.80
56046;DHT22;41913;51.030;3.706;2024-03-08T04:42:02;16.90;79.30
56046;DHT22;41913;51.030;3.706;2024-03-08T04:44:36;16.90;79.60
56046;DHT22;41913;51.030;3.706;2024-03-08T04:47:03;16.90;79.40
56046;DHT22;41913;51.030;3.706;2024-03-08T04:49:32;16.90;79.40
56046;DHT22;41913;51.030;3.706;2024-03-08T04:52:04;16.90;79.40
56046;DHT22;41913;51.030;3.706;2024-03-08T04:54:33;16.90;79.20
56046;DHT22;41913;51.030;3.706;2024-03-08T04:56:58;16.90;79.40
56046;DHT22;41913;51.030;3.706;2024-03-08T04:59:27;16.90;79.50
56046;DHT22;41913;51.030;3.706;2024-03-08T05:01:53;16.90;79.50
56046;DHT22;41913;51.030;3.706;2024-03-08T05:04:19;16.90;79.50
56046;DHT22;41913;51.030;3.706;2024-03-08T05:06:45;16.90;79.60
56046;DHT22;41913;51.030;3.706;2024-03-08T05:09:10;16.90;79.50
56046;DHT22;41913;51.030;3.706;2024-03-08T05:11:42;16.90;79.40
56046;DHT22;41913;51.030;3.706;2024-03-08T05:14:10;16.90;79.30
56046;DHT22;41913;51.030;3.706;2024-03-08T05:16:36;16.80;79.20
56046;DHT22;41913;51.030;3.706;2024-03-08T05:19:02;16.90;79.30
56046;DHT22;41913;51.030;3.706;2024-03-08T05:21:28;16.80;79.40
56046;DHT22;41913;51.030;3.706;2024-03-08T05:23:56;16.80;79.30
56046;DHT22;41913;51.030;3.706;2024-03-08T05:26:22;16.80;79.40
56046;DHT22;41913;51.030;3.706;2024-03-08T05:28:49;16.80;79.30
56046;DHT22;41913;51.030;3.706;2024-03-08T05:31:19;16.80;79.30
56046;DHT22;41913;51.030;3.706;2024-03-08T05:33:47;16.80;79.30
56046;DHT22;41913;51.030;3.706;2024-03-08T05:36:13;16.80;79.90
56046;DHT22;41913;51.030;3.706;2024-03-08T05:38:40;16.80;79.20
56046;DHT22;41913;51.030;3.706;2024-03-08T05:41:07;16.80;79.30
56046;DHT22;41913;51.030;3.706;2024-03-08T05:43:33;16.80;79.40
56046;DHT22;41913;51.030;3.706;2024-03-08T05:45:59;16.80;79.40
56046;DHT22;41913;51.030;3.706;2024-03-08T05:48:24;16.80;79.20
56046;DHT22;41913;51.030;3.706;2024-03-08T05:50:50;16.80;79.30
56046;DHT22;41913;51.030;3.706;2024-03-08T05:53:16;16.80;79.30
56046;DHT22;41913;51.030;3.706;2024-03-08T05:55:42;16.80;79.10
56046;DHT22;41913;51.030;3.706;2024-03-08T05:58:07;16.80;79.20
56046;DHT22;41913;51.030;3.706;2024-03-08T06:00:34;16.80;79.30
56046;DHT22;41913;51.030;3.706;2024-03-08T06:03:02;16.70;79.20
56046;DHT22;41913;51.030;3.706;2024-03-08T06:05:28;16.70;79.10
56046;DHT22;41913;51.030;3.706;2024-03-08T06:07:54;16.70;79.20
56046;DHT22;41913;51.030;3.706;2024-03-08T06:10:20;16.70;79.10
56046;DHT22;41913;51.030;3.706;2024-03-08T06:12:46;16.70;79.20
56046;DHT22;41913;51.030;3.706;2024-03-08T06:15:11;16.70;79.10
56046;DHT22;41913;51.030;3.706;2024-03-08T06:17:41;16.70;79.00
56046;DHT22;41913;51.030;3.706;2024-03-08T06:20:07;16.70;79.00
56046;DHT22;41913;51.030;3.706;2024-03-08T06:22:39;16.70;78.90
56046;DHT22;41913;51.030;3.706;2024-03-08T06:25:07;16.70;78.80
56046;DHT22;41913;51.030;3.706;2024-03-08T06:27:33;16.80;78.80
56046;DHT22;41913;51.030;3.706;2024-03-08T06:30:00;16.80;78.90
56046;DHT22;41913;51.030;3.706;2024-03-08T06:32:26;16.80;78.70
56046;DHT22;41913;51.030;3.706;2024-03-08T06:34:51;16.80;78.70
56046;DHT22;41913;51.030;3.706;2024-03-08T06:37:17;16.80;78.70
56046;DHT22;41913;51.030;3.706;2024-03-08T06:39:48;16.80;78.70
56046;DHT22;41913;51.030;3.706;2024-03-08T06:42:14;16.80;78.50
56046;DHT22;41913;51.030;3.706;2024-03-08T06:44:40;16.70;78.80
56046;DHT22;41913;51.030;3.706;2024-03-08T06:47:15;16.70;78.60
56046;DHT22;41913;51.030;3.706;2024-03-08T06:49:44;16.70;78.00
56046;DHT22;41913;51.030;3.706;2024-03-08T06:52:11;16.70;78.80
56046;DHT22;41913;51.030;3.706;2024-03-08T06:54:37;16.70;78.30
56046;DHT22;41913;51.030;3.706;2024-03-08T06:57:03;16.80;78.00
56046;DHT22;41913;51.030;3.706;2024-03-08T06:59:31;16.90;77.90
56046;DHT22;41913;51.030;3.706;2024-03-08T07:01:56;16.90;77.20
56046;DHT22;41913;51.030;3.706;2024-03-08T07:04:22;17.00;76.80
56046;DHT22;41913;51.030;3.706;2024-03-08T07:06:52;17.10;76.50
56046;DHT22;41913;51.030;3.706;2024-03-08T07:09:17;17.20;76.70
56046;DHT22;41913;51.030;3.706;2024-03-08T07:11:44;17.30;77.60
56046;DHT22;41913;51.030;3.706;2024-03-08T07:14:09;17.30;76.40
56046;DHT22;41913;51.030;3.706;2024-03-08T07:16:35;17.40;75.90
56046;DHT22;41913;51.030;3.706;2024-03-08T07:19:01;17.40;76.90
56046;DHT22;41913;51.030;3.706;2024-03-08T07:21:28;17.50;76.90
56046;DHT22;41913;51.030;3.706;2024-03-08T07:23:54;17.50;77.30
56046;DHT22;41913;51.030;3.706;2024-03-08T07:26:26;17.60;78.60
56046;DHT22;41913;51.030;3.706;2024-03-08T07:28:51;17.60;78.40
56046;DHT22;41913;51.030;3.706;2024-03-08T07:31:17;17.70;76.80
56046;DHT22;41913;51.030;3.706;2024-03-08T07:34:04;17.80;76.80
56046;DHT22;41913;51.030;3.706;2024-03-08T07:36:33;17.90;76.60
56046;DHT22;41913;51.030;3.706;2024-03-08T07:39:03;18.00;77.10
56046;DHT22;41913;51.030;3.706;2024-03-08T07:41:39;18.10;76.40
56046;DHT22;41913;51.030;3.706;2024-03-08T07:44:08;18.10;76.50
56046;DHT22;41913;51.030;3.706;2024-03-08T07:46:34;18.20;77.00
56046;DHT22;41913;51.030;3.706;2024-03-08T07:49:00;18.20;76.90
56046;DHT22;41913;51.030;3.706;2024-03-08T07:51:26;18.20;76.70
56046;DHT22;41913;51.030;3.706;2024-03-08T07:53:52;18.30;77.30
56046;DHT22;41913;51.030;3.706;2024-03-08T07:56:18;18.30;77.00
56046;DHT22;41913;51.030;3.706;2024-03-08T07:58:45;18.30;77.20
56046;DHT22;41913;51.030;3.706;2024-03-08T08:01:20;18.30;76.90
56046;DHT22;41913;51.030;3.706;2024-03-08T08:03:46;18.40;76.90
56046;DHT22;41913;51.030;3.706;2024-03-08T08:06:15;18.40;76.80
56046;DHT22;41913;51.030;3.706;2024-03-08T08:08:42;18.40;76.70
56046;DHT22;41913;51.030;3.706;2024-03-08T08:11:08;18.40;76.70
56046;DHT22;41913;51.030;3.706;2024-03-08T08:13:35;18.40;76.50
56046;DHT22;41913;51.030;3.706;2024-03-08T08:16:02;18.40;76.60
56046;DHT22;41913;51.030;3.706;2024-03-08T08:18:28;18.40;76.70
56046;DHT22;41913;51.030;3.706;2024-03-08T08:20:55;18.50;76.40
56046;DHT22;41913;51.030;3.706;2024-03-08T08:23:22;18.50;76.30
56046;DHT22;41913;51.030;3.706;2024-03-08T08:25:48;18.40;76.20
56046;DHT22;41913;51.030;3.706;2024-03-08T08:28:18;18.40;76.70
56046;DHT22;41913;51.030;3.706;2024-03-08T08:30:44;18.40;77.30
56046;DHT22;41913;51.030;3.706;2024-03-08T08:33:10;18.40;77.30
56046;DHT22;41913;51.030;3.706;2024-03-08T08:35:37;18.40;77.20
56046;DHT22;41913;51.030;3.706;2024-03-08T08:38:04;18.30;77.20
56046;DHT22;41913;51.030;3.706;2024-03-08T08:40:30;18.40;77.10
56046;DHT22;41913;51.030;3.706;2024-03-08T08:42:58;18.40;77.70
56046;DHT22;41913;51.030;3.706;2024-03-08T08:45:25;18.40;77.00
56046;DHT22;41913;51.030;3.706;2024-03-08T08:47:51;18.40;77.10
56046;DHT22;41913;51.030;3.706;2024-03-08T08:50:17;18.40;77.40
56046;DHT22;41913;51.030;3.706;2024-03-08T08:52:50;18.40;76.90
56046;DHT22;41913;51.030;3.706;2024-03-08T08:55:16;18.40;77.30
56046;DHT22;41913;51.030;3.706;2024-03-08T08:57:46;18.40;77.30
56046;DHT22;41913;51.030;3.706;2024-03-08T09:00:13;18.40;77.10
56046;DHT22;41913;51.030;3.706;2024-03-08T09:02:42;18.30;76.90
56046;DHT22;41913;51.030;3.706;2024-03-08T09:05:08;18.30;77.20
56046;DHT22;41913;51.030;3.706;2024-03-08T09:07:34;18.30;77.40
56046;DHT22;41913;51.030;3.706;2024-03-08T09:10:03;18.30;77.00
56046;DHT22;41913;51.030;3.706;2024-03-08T09:12:29;18.30;76.70
56046;DHT22;41913;51.030;3.706;2024-03-08T09:14:54;18.20;76.50
56046;DHT22;41913;51.030;3.706;2024-03-08T09:17:20;18.30;76.70
56046;DHT22;41913;51.030;3.706;2024-03-08T09:19:49;18.20;76.90
56046;DHT22;41913;51.030;3.706;2024-03-08T09:22:15;18.20;76.70
56046;DHT22;41913;51.030;3.706;2024-03-08T09:24:41;18.20;76.70
56046;DHT22;41913;51.030;3.706;2024-03-08T09:27:08;18.20;76.50
56046;DHT22;41913;51.030;3.706;2024-03-08T09:29:35;18.20;76.50
56046;DHT22;41913;51.030;3.706;2024-03-08T09:32:01;18.10;76.50
56046;DHT22;41913;51.030;3.706;2024-03-08T09:34:27;18.20;76.50
56046;DHT22;41913;51.030;3.706;2024-03-08T09:36:53;18.10;76.60
56046;DHT22;41913;51.030;3.706;2024-03-08T09:39:19;18.10;76.50
56046;DHT22;41913;51.030;3.706;2024-03-08T09:41:47;18.10;76.60
56046;DHT22;41913;51.030;3.706;2024-03-08T09:44:14;18.10;76.20
56046;DHT22;41913;51.030;3.706;2024-03-08T09:46:40;18.00;76.10
56046;DHT22;41913;51.030;3.706;2024-03-08T09:49:08;18.00;76.20
56046;DHT22;41913;51.030;3.706;2024-03-08T09:51:37;18.00;76.30
56046;DHT22;41913;51.030;3.706;2024-03-08T09:54:06;18.00;76.20
56046;DHT22;41913;51.030;3.706;2024-03-08T09:56:35;18.00;76.10
56046;DHT22;41913;51.030;3.706;2024-03-08T09:59:02;17.90;76.10
56046;DHT22;41913;51.030;3.706;2024-03-08T10:01:37;17.90;76.20
56046;DHT22;41913;51.030;3.706;2024-03-08T10:04:04;17.90;76.30
56046;DHT22;41913;51.030;3.706;2024-03-08T10:06:30;17.90;76.40
56046;DHT22;41913;51.030;3.706;2024-03-08T10:08:57;17.90;76.30
56046;DHT22;41913;51.030;3.706;2024-03-08T10:11:24;17.80;76.30
56046;DHT22;41913;51.030;3.706;2024-03-08T10:13:50;17.80;76.40
56046;DHT22;41913;51.030;3.706;2024-03-08T10:16:16;17.80;76.50
56046;DHT22;41913;51.030;3.706;2024-03-08T10:18:46;17.80;76.90
56046;DHT22;41913;51.030;3.706;2024-03-08T10:21:12;17.80;76.50
56046;DHT22;41913;51.030;3.706;2024-03-08T10:23:41;17.80;76.40
56046;DHT22;41913;51.030;3.706;2024-03-08T10:26:18;17.80;76.30
56046;DHT22;41913;51.030;3.706;2024-03-08T10:28:51;17.70;76.20
56046;DHT22;41913;51.030;3.706;2024-03-08T10:31:19;17.70;76.20
56046;DHT22;41913;51.030;3.706;2024-03-08T10:33:46;17.50;76.00
56046;DHT22;41913;51.030;3.706;2024-03-08T10:36:13;17.70;76.20
56046;DHT22;41913;51.030;3.706;2024-03-08T10:38:41;17.60;76.30
56046;DHT22;41913;51.030;3.706;2024-03-08T10:41:10;17.70;76.30
56046;DHT22;41913;51.030;3.706;2024-03-08T10:46:50;17.60;76.20
56046;DHT22;41913;51.030;3.706;2024-03-08T10:49:25;17.60;76.30
56046;DHT22;41913;51.030;3.706;2024-03-08T10:51:52;17.50;76.30
56046;DHT22;41913;51.030;3.706;2024-03-08T10:54:19;17.60;76.40
56046;DHT22;41913;51.030;3.706;2024-03-08T10:56:48;17.60;76.50
56046;DHT22;41913;51.030;3.706;2024-03-08T10:59:18;17.60;76.50
56046;DHT22;41913;51.030;3.706;2024-03-08T11:01:45;17.60;76.60
56046;DHT22;41913;51.030;3.706;2024-03-08T11:04:12;17.60;76.50
56046;DHT22;41913;51.030;3.706;2024-03-08T11:09:10;17.50;76.40
56046;DHT22;41913;51.030;3.706;2024-03-08T11:11:42;17.50;76.50
56046;DHT22;41913;51.030;3.706;2024-03-08T11:14:45;17.50;76.60
56046;DHT22;41913;51.030;3.706;2024-03-08T11:17:25;17.50;76.60
56046;DHT22;41913;51.030;3.706;2024-03-08T11:19:55;17.50;76.80
56046;DHT22;41913;51.030;3.706;2024-03-08T11:22:23;17.40;76.70
56046;DHT22;41913;51.030;3.706;2024-03-08T11:24:49;17.50;76.80
56046;DHT22;41913;51.030;3.706;2024-03-08T11:27:17;17.50;76.80
56046;DHT22;41913;51.030;3.706;2024-03-08T11:29:43;17.50;77.00
56046;DHT22;41913;51.030;3.706;2024-03-08T11:32:11;17.40;76.80
56046;DHT22;41913;51.030;3.706;2024-03-08T11:34:41;17.50;76.90
56046;DHT22;41913;51.030;3.706;2024-03-08T11:37:17;17.40;76.90
56046;DHT22;41913;51.030;3.706;2024-03-08T11:39:47;17.40;76.90
56046;DHT22;41913;51.030;3.706;2024-03-08T11:42:18;17.40;77.00
56046;DHT22;41913;51.030;3.706;2024-03-08T11:44:45;17.40;77.00
56046;DHT22;41913;51.030;3.706;2024-03-08T11:47:11;17.40;77.00
56046;DHT22;41913;51.030;3.706;2024-03-08T11:49:40;17.40;77.00
56046;DHT22;41913;51.030;3.706;2024-03-08T11:52:13;17.40;77.00
56046;DHT22;41913;51.030;3.706;2024-03-08T11:54:40;17.40;77.20
56046;DHT22;41913;51.030;3.706;2024-03-08T11:57:06;17.40;77.00
56046;DHT22;41913;51.030;3.706;2024-03-08T11:59:32;17.40;77.10
56046;DHT22;41913;51.030;3.706;2024-03-08T12:02:07;17.40;77.10
56046;DHT22;41913;51.030;3.706;2024-03-08T12:04:36;17.40;77.00
56046;DHT22;41913;51.030;3.706;2024-03-08T12:07:03;17.40;77.00
56046;DHT22;41913;51.030;3.706;2024-03-08T12:09:35;17.40;77.10
56046;DHT22;41913;51.030;3.706;2024-03-08T12:12:02;17.40;77.10
56046;DHT22;41913;51.030;3.706;2024-03-08T12:14:30;17.40;77.20
56046;DHT22;41913;51.030;3.706;2024-03-08T12:16:57;17.40;77.30
56046;DHT22;41913;51.030;3.706;2024-03-08T12:19:23;17.40;77.30
56046;DHT22;41913;51.030;3.706;2024-03-08T12:21:49;17.40;77.30
56046;DHT22;41913;51.030;3.706;2024-03-08T12:24:16;17.30;77.20
56046;DHT22;41913;51.030;3.706;2024-03-08T12:26:46;17.30;77.30
56046;DHT22;41913;51.030;3.706;2024-03-08T12:29:20;17.30;77.30
56046;DHT22;41913;51.030;3.706;2024-03-08T12:31:52;17.30;77.20
56046;DHT22;41913;51.030;3.706;2024-03-08T12:34:19;17.30;77.30
56046;DHT22;41913;51.030;3.706;2024-03-08T12:36:48;17.30;77.30
56046;DHT22;41913;51.030;3.706;2024-03-08T12:39:19;17.30;77.30
56046;DHT22;41913;51.030;3.706;2024-03-08T12:41:54;17.30;77.40
56046;DHT22;41913;51.030;3.706;2024-03-08T12:44:20;17.30;77.40
56046;DHT22;41913;51.030;3.706;2024-03-08T12:46:49;17.30;77.60
56046;DHT22;41913;51.030;3.706;2024-03-08T12:49:15;17.30;77.60
56046;DHT22;41913;51.030;3.706;2024-03-08T12:51:45;17.30;77.50
56046;DHT22;41913;51.030;3.706;2024-03-08T12:54:11;17.30;77.60
56046;DHT22;41913;51.030;3.706;2024-03-08T12:56:36;17.30;77.60
56046;DHT22;41913;51.030;3.706;2024-03-08T12:59:08;17.30;77.50
56046;DHT22;41913;51.030;3.706;2024-03-08T13:01:36;17.30;77.70
56046;DHT22;41913;51.030;3.706;2024-03-08T13:04:05;17.30;77.80
56046;DHT22;41913;51.030;3.706;2024-03-08T13:06:32;17.30;77.70
56046;DHT22;41913;51.030;3.706;2024-03-08T13:08:58;17.30;78.00
56046;DHT22;41913;51.030;3.706;2024-03-08T13:11:26;17.30;78.00
56046;DHT22;41913;51.030;3.706;2024-03-08T13:13:53;17.30;77.90
56046;DHT22;41913;51.030;3.706;2024-03-08T13:16:19;17.30;77.90
56046;DHT22;41913;51.030;3.706;2024-03-08T13:18:46;17.30;77.90
56046;DHT22;41913;51.030;3.706;2024-03-08T13:21:15;17.30;78.10
56046;DHT22;41913;51.030;3.706;2024-03-08T13:23:44;17.20;78.10
56046;DHT22;41913;51.030;3.706;2024-03-08T13:26:15;17.20;77.90
56046;DHT22;41913;51.030;3.706;2024-03-08T13:28:50;17.20;77.90
56046;DHT22;41913;51.030;3.706;2024-03-08T13:31:22;17.20;78.00
56046;DHT22;41913;51.030;3.706;2024-03-08T13:33:48;17.20;77.90
56046;DHT22;41913;51.030;3.706;2024-03-08T13:36:14;17.20;78.10
56046;DHT22;41913;51.030;3.706;2024-03-08T13:38:45;17.20;78.30
56046;DHT22;41913;51.030;3.706;2024-03-08T13:41:12;17.20;78.20
56046;DHT22;41913;51.030;3.706;2024-03-08T13:43:40;17.20;78.30
56046;DHT22;41913;51.030;3.706;2024-03-08T13:46:06;17.20;78.50
56046;DHT22;41913;51.030;3.706;2024-03-08T13:48:33;17.20;78.50
56046;DHT22;41913;51.030;3.706;2024-03-08T13:50:59;17.20;78.40
56046;DHT22;41913;51.030;3.706;2024-03-08T13:53:26;17.20;78.70
56046;DHT22;41913;51.030;3.706;2024-03-08T13:55:52;17.20;78.50
56046;DHT22;41913;51.030;3.706;2024-03-08T13:58:20;17.20;78.40
56046;DHT22;41913;51.030;3.706;2024-03-08T14:00:46;17.20;78.50
56046;DHT22;41913;51.030;3.706;2024-03-08T14:03:13;17.20;78.30
56046;DHT22;41913;51.030;3.706;2024-03-08T14:05:42;17.20;78.90
56046;DHT22;41913;51.030;3.706;2024-03-08T14:08:09;17.20;78.70
56046;DHT22;41913;51.030;3.706;2024-03-08T14:10:35;17.20;78.80
56046;DHT22;41913;51.030;3.706;2024-03-08T14:13:03;17.20;78.40
56046;DHT22;41913;51.030;3.706;2024-03-08T14:15:33;17.20;78.60
56046;DHT22;41913;51.030;3.706;2024-03-08T14:18:01;17.20;78.50
56046;DHT22;41913;51.030;3.706;2024-03-08T14:20:27;17.20;78.50
56046;DHT22;41913;51.030;3.706;2024-03-08T14:22:54;17.20;78.30
56046;DHT22;41913;51.030;3.706;2024-03-08T14:25:23;17.20;78.70
56046;DHT22;41913;51.030;3.706;2024-03-08T14:27:50;17.20;78.50
56046;DHT22;41913;51.030;3.706;2024-03-08T14:30:20;17.20;78.50
56046;DHT22;41913;51.030;3.706;2024-03-08T14:33:04;17.20;78.60
56046;DHT22;41913;51.030;3.706;2024-03-08T14:35:37;17.20;78.40
56046;DHT22;41913;51.030;3.706;2024-03-08T14:38:03;17.20;78.30
56046;DHT22;41913;51.030;3.706;2024-03-08T14:40:31;17.20;78.30
56046;DHT22;41913;51.030;3.706;2024-03-08T14:42:57;17.20;78.30
56046;DHT22;41913;51.030;3.706;2024-03-08T14:45:23;17.20;78.30
56046;DHT22;41913;51.030;3.706;2024-03-08T14:47:50;17.20;78.50
56046;DHT22;41913;51.030;3.706;2024-03-08T14:50:20;17.20;78.30
56046;DHT22;41913;51.030;3.706;2024-03-08T14:52:46;17.20;78.40
56046;DHT22;41913;51.030;3.706;2024-03-08T14:55:18;17.20;78.80
56046;DHT22;41913;51.030;3.706;2024-03-08T14:57:48;17.20;79.00
56046;DHT22;41913;51.030;3.706;2024-03-08T15:00:17;17.20;78.80
56046;DHT22;41913;51.030;3.706;2024-03-08T15:02:55;17.20;78.80
56046;DHT22;41913;51.030;3.706;2024-03-08T15:05:22;17.20;78.60
56046;DHT22;41913;51.030;3.706;2024-03-08T15:07:53;17.20;78.70
56046;DHT22;41913;51.030;3.706;2024-03-08T15:10:20;17.20;79.20
56046;DHT22;41913;51.030;3.706;2024-03-08T15:12:50;17.20;78.60
56046;DHT22;41913;51.030;3.706;2024-03-08T15:15:18;17.20;78.30
56046;DHT22;41913;51.030;3.706;2024-03-08T15:17:44;17.20;78.20
56046;DHT22;41913;51.030;3.706;2024-03-08T15:20:13;17.20;78.50
56046;DHT22;41913;51.030;3.706;2024-03-08T15:22:43;17.20;78.80
56046;DHT22;41913;51.030;3.706;2024-03-08T15:25:10;17.20;79.20
56046;DHT22;41913;51.030;3.706;2024-03-08T15:27:48;17.20;79.20
56046;DHT22;41913;51.030;3.706;2024-03-08T15:30:15;17.20;79.00
56046;DHT22;41913;51.030;3.706;2024-03-08T15:32:48;17.20;78.90
56046;DHT22;41913;51.030;3.706;2024-03-08T15:35:16;17.20;78.80
56046;DHT22;41913;51.030;3.706;2024-03-08T15:37:48;17.20;78.80